createdAt,value
2018-02-19T00:00:36.471Z,44.23
2018-02-19T00:03:04.030Z,43.50
2018-02-19T00:05:31.576Z,48.77
2018-02-19T00:07:59.100Z,44.73
2018-02-19T00:10:26.624Z,43.27
2018-02-19T00:12:54.185Z,40.40
2018-02-19T00:15:21.757Z,46.43
2018-02-19T00:17:49.382Z,41.80
2018-02-19T00:20:17.188Z,48.77
2018-02-19T00:22:45.529Z,45.90
2018-02-19T00:25:13.200Z,43.30
2018-02-19T00:27:41.370Z,44.87
2018-02-19T00:30:09.676Z,47.10
2018-02-19T00:32:37.253Z,44.87
2018-02-19T00:35:04.800Z,45.23
2018-02-19T00:37:32.326Z,41.03
2018-02-19T00:39:59.884Z,41.50
2018-02-19T00:42:27.692Z,35.60
2018-02-19T00:44:55.249Z,44.20
2018-02-19T00:47:24.291Z,40.20
2018-02-19T00:49:51.877Z,35.67
2018-02-19T00:52:19.668Z,40.33
2018-02-19T00:54:47.380Z,42.60
2018-02-19T00:57:15.155Z,36.63
2018-02-19T00:59:42.832Z,43.00
2018-02-19T01:02:10.796Z,40.03
2018-02-19T01:04:38.560Z,39.53
2018-02-19T01:07:06.125Z,42.17
2018-02-19T01:09:33.672Z,37.57
2018-02-19T01:12:01.242Z,39.77
2018-02-19T01:14:28.774Z,46.13
2018-02-19T01:16:57.088Z,45.93
2018-02-19T01:19:24.648Z,46.33
2018-02-19T01:21:52.176Z,42.13
2018-02-19T01:24:19.702Z,39.47
2018-02-19T01:26:47.428Z,38.57
2018-02-19T01:29:15.042Z,41.17
2018-02-19T01:31:43.873Z,37.72
2018-02-19T01:34:12.365Z,44.97
2018-02-19T01:36:40.383Z,39.60
2018-02-19T01:39:07.982Z,44.67
2018-02-19T01:41:35.871Z,40.00
2018-02-19T01:44:03.613Z,36.33
2018-02-19T01:46:31.360Z,39.97
2018-02-19T01:48:58.930Z,38.78
2018-02-19T01:51:26.484Z,36.30
2018-02-19T01:53:54.063Z,36.90
2018-02-19T01:56:21.644Z,41.78
2018-02-19T01:58:49.584Z,40.27
2018-02-19T02:01:17.658Z,37.80
2018-02-19T02:03:45.836Z,39.70
2018-02-19T02:06:14.457Z,37.33
2018-02-19T02:08:42.975Z,40.33
2018-02-19T02:11:11.795Z,37.88
2018-02-19T02:13:40.728Z,37.40
2018-02-19T02:16:09.783Z,37.25
2018-02-19T02:18:37.352Z,37.10
2018-02-19T02:21:06.705Z,38.00
2018-02-19T02:23:35.188Z,36.53
2018-02-19T02:26:03.914Z,37.00
2018-02-19T02:28:32.704Z,38.30
2018-02-19T02:31:00.288Z,35.47
2018-02-19T02:33:27.829Z,39.05
2018-02-19T02:35:55.413Z,39.83
2018-02-19T02:38:22.959Z,31.92
2018-02-19T02:40:50.493Z,32.42
2018-02-19T02:43:18.578Z,41.00
2018-02-19T02:45:46.979Z,33.67
2018-02-19T02:48:15.336Z,40.25
2018-02-19T02:50:43.379Z,39.10
2018-02-19T02:53:11.959Z,34.42
2018-02-19T02:55:40.371Z,38.08
2018-02-19T02:58:08.091Z,38.50
2018-02-19T03:00:36.787Z,34.17
2018-02-19T03:03:05.422Z,39.22
2018-02-19T03:05:33.271Z,37.75
2018-02-19T03:08:00.878Z,34.15
2018-02-19T03:10:28.416Z,39.17
2018-02-19T03:12:55.970Z,39.05
2018-02-19T03:15:23.763Z,38.25
2018-02-19T03:17:51.309Z,40.12
2018-02-19T03:20:18.965Z,37.90
2018-02-19T03:22:46.699Z,38.33
2018-02-19T03:25:15.847Z,39.97
2018-02-19T03:27:47.140Z,40.05
2018-02-19T03:30:15.006Z,42.45
2018-02-19T03:32:43.905Z,39.20
2018-02-19T03:35:11.539Z,35.95
2018-02-19T03:37:41.725Z,45.93
2018-02-19T03:40:10.082Z,48.00
2018-02-19T03:42:37.648Z,42.65
2018-02-19T03:45:06.783Z,42.00
2018-02-19T03:47:35.485Z,45.70
2018-02-19T03:50:04.412Z,38.10
2018-02-19T03:52:32.385Z,39.13
2018-02-19T03:55:00.762Z,43.40
2018-02-19T03:57:28.683Z,39.90
2018-02-19T03:59:57.015Z,41.03
2018-02-19T04:02:24.558Z,35.90
2018-02-19T04:04:52.258Z,47.70
2018-02-19T04:07:19.978Z,39.43
2018-02-19T04:09:47.966Z,40.60
2018-02-19T04:12:16.242Z,42.17
2018-02-19T04:14:45.153Z,44.23
2018-02-19T04:17:13.031Z,40.53
2018-02-19T04:19:42.219Z,43.10
2018-02-19T04:22:12.019Z,38.80
2018-02-19T04:24:40.503Z,35.47
2018-02-19T04:27:09.008Z,42.83
2018-02-19T04:29:36.712Z,42.63
2018-02-19T04:32:05.263Z,41.67
2018-02-19T04:34:34.152Z,41.20
2018-02-19T04:37:03.004Z,38.50
2018-02-19T04:39:30.536Z,40.03
2018-02-19T04:41:58.985Z,41.13
2018-02-19T04:44:30.465Z,36.03
2018-02-19T04:46:58.777Z,36.53
2018-02-19T04:49:26.318Z,37.93
2018-02-19T04:51:53.899Z,37.50
2018-02-19T04:54:21.418Z,44.10
2018-02-19T04:56:49.752Z,44.17
2018-02-19T04:59:17.715Z,43.77
2018-02-19T05:01:46.393Z,38.20
2018-02-19T05:04:14.913Z,45.37
2018-02-19T05:06:43.355Z,40.63
2018-02-19T05:09:12.042Z,40.03
2018-02-19T05:11:41.040Z,42.10
2018-02-19T05:14:09.518Z,37.17
2018-02-19T05:16:37.385Z,39.83
2018-02-19T05:19:06.793Z,43.00
2018-02-19T05:21:34.554Z,39.10
2018-02-19T05:24:03.239Z,39.27
2018-02-19T05:26:30.789Z,39.33
2018-02-19T05:28:58.345Z,30.70
2018-02-19T05:31:25.873Z,34.60
2018-02-19T05:33:54.194Z,37.87
2018-02-19T05:36:21.718Z,38.50
2018-02-19T05:38:50.330Z,35.83
2018-02-19T05:41:18.962Z,41.50
2018-02-19T05:43:47.099Z,39.90
2018-02-19T05:46:15.696Z,38.90
2018-02-19T05:48:44.399Z,38.50
2018-02-19T05:51:12.778Z,31.47
2018-02-19T05:53:41.780Z,34.97
2018-02-19T05:56:09.444Z,30.67
2018-02-19T05:58:38.426Z,35.97
2018-02-19T06:01:07.085Z,36.33
2018-02-19T06:03:35.181Z,31.13
2018-02-19T06:06:02.875Z,33.10
2018-02-19T06:08:30.413Z,35.97
2018-02-19T06:10:58.749Z,35.33
2018-02-19T06:13:26.333Z,34.10
2018-02-19T06:15:53.882Z,35.70
2018-02-19T06:18:21.409Z,36.50
2018-02-19T06:20:50.008Z,37.67
2018-02-19T06:23:17.600Z,40.63
2018-02-19T06:25:45.762Z,39.17
2018-02-19T06:28:14.058Z,36.67
2018-02-19T06:30:42.253Z,35.20
2018-02-19T06:33:11.368Z,33.43
2018-02-19T06:35:40.105Z,34.47
2018-02-19T06:38:10.333Z,41.90
2018-02-19T06:40:38.350Z,32.77
2018-02-19T06:43:06.346Z,35.03
2018-02-19T06:45:34.228Z,33.87
2018-02-19T06:48:03.118Z,35.63
2018-02-19T06:50:30.685Z,34.27
2018-02-19T06:52:58.245Z,35.07
2018-02-19T06:55:25.774Z,30.63
2018-02-19T06:57:53.343Z,36.00
2018-02-19T07:00:20.982Z,32.90
2018-02-19T07:02:49.311Z,33.73
2018-02-19T07:05:17.078Z,33.20
2018-02-19T07:07:44.930Z,31.83
2018-02-19T07:10:12.694Z,33.57
2018-02-19T07:12:41.102Z,34.07
2018-02-19T07:15:09.042Z,31.87
2018-02-19T07:17:37.407Z,34.20
2018-02-19T07:20:05.045Z,32.80
2018-02-19T07:22:33.393Z,35.23
2018-02-19T07:25:01.125Z,30.90
2018-02-19T07:27:28.665Z,34.03
2018-02-19T07:29:56.208Z,33.97
2018-02-19T07:32:24.510Z,31.53
2018-02-19T07:34:52.070Z,32.00
2018-02-19T07:37:19.950Z,32.67
2018-02-19T07:39:47.820Z,32.83
2018-02-19T07:42:15.582Z,32.33
2018-02-19T07:44:43.573Z,32.47
2018-02-19T07:47:13.264Z,34.47
2018-02-19T07:49:41.249Z,33.97
2018-02-19T07:52:09.817Z,33.93
2018-02-19T07:54:37.407Z,33.30
2018-02-19T07:57:05.736Z,36.43
2018-02-19T07:59:33.541Z,31.90
2018-02-19T08:02:01.148Z,27.57
2018-02-19T08:04:28.734Z,34.07
2018-02-19T08:06:56.446Z,27.57
2018-02-19T08:09:23.979Z,32.00
2018-02-19T08:11:51.526Z,36.17
2018-02-19T08:14:19.078Z,29.80
2018-02-19T08:16:47.015Z,32.07
2018-02-19T08:19:14.641Z,33.00
2018-02-19T08:21:43.375Z,32.23
2018-02-19T08:24:11.409Z,36.47
2018-02-19T08:26:40.177Z,32.53
2018-02-19T08:29:07.827Z,30.67
2018-02-19T08:31:35.487Z,42.37
2018-02-19T08:34:03.471Z,31.90
2018-02-19T08:36:31.224Z,28.77
2018-02-19T08:38:58.829Z,35.07
2018-02-19T08:41:26.395Z,43.77
2018-02-19T08:43:54.705Z,30.90
2018-02-19T08:46:22.297Z,35.27
2018-02-19T08:48:49.825Z,33.47
2018-02-19T08:51:17.402Z,34.13
2018-02-19T08:53:45.268Z,31.13
2018-02-19T08:56:13.362Z,31.30
2018-02-19T08:58:41.825Z,30.70
2018-02-19T09:01:10.819Z,28.77
2018-02-19T09:03:38.891Z,33.80
2018-02-19T09:06:07.248Z,34.10
2018-02-19T09:08:34.824Z,36.07
2018-02-19T09:11:02.697Z,28.00
2018-02-19T09:13:31.095Z,33.87
2018-02-19T09:15:58.661Z,26.53
2018-02-19T09:18:26.185Z,33.33
2018-02-19T09:20:53.733Z,29.83
2018-02-19T09:23:22.045Z,28.00
2018-02-19T09:25:49.693Z,32.97
2018-02-19T09:28:17.354Z,31.70
2018-02-19T09:30:45.066Z,28.80
2018-02-19T09:33:13.742Z,28.33
2018-02-19T09:35:41.603Z,28.53
2018-02-19T09:38:10.208Z,27.17
2018-02-19T09:40:37.927Z,28.67
2018-02-19T09:43:05.554Z,28.13
2018-02-19T09:45:34.382Z,27.53
2018-02-19T09:48:02.042Z,30.07
2018-02-19T09:50:29.601Z,29.90
2018-02-19T09:52:57.133Z,33.50
2018-02-19T09:55:25.450Z,28.20
2018-02-19T09:57:52.974Z,31.07
2018-02-19T10:00:21.456Z,30.07
2018-02-19T10:02:49.154Z,28.83
2018-02-19T10:05:17.008Z,33.63
2018-02-19T10:07:45.489Z,31.87
2018-02-19T10:10:13.508Z,30.80
2018-02-19T10:12:42.453Z,28.37
2018-02-19T10:15:10.422Z,30.30
2018-02-19T10:17:39.825Z,30.60
2018-02-19T10:20:07.375Z,35.37
2018-02-19T10:22:34.949Z,31.33
2018-02-19T10:25:02.712Z,28.67
2018-02-19T10:27:30.297Z,34.80
2018-02-19T10:29:58.725Z,28.80
2018-02-19T10:32:27.028Z,26.97
2018-02-19T10:34:54.560Z,32.47
2018-02-19T10:37:22.941Z,31.20
2018-02-19T10:39:50.733Z,30.27
2018-02-19T10:42:19.232Z,32.73
2018-02-19T10:44:47.224Z,30.30
2018-02-19T10:47:15.081Z,36.00
2018-02-19T10:49:43.356Z,29.90
2018-02-19T10:52:11.255Z,38.13
2018-02-19T10:54:40.292Z,32.60
2018-02-19T10:57:09.288Z,32.73
2018-02-19T10:59:36.864Z,31.20
2018-02-19T11:02:04.666Z,30.40
2018-02-19T11:04:32.359Z,34.33
2018-02-19T11:06:59.905Z,34.30
2018-02-19T11:09:28.241Z,33.43
2018-02-19T11:11:55.784Z,38.23
2018-02-19T11:14:23.415Z,35.63
2018-02-19T11:16:50.950Z,35.67
2018-02-19T11:19:19.249Z,32.73
2018-02-19T11:21:47.753Z,36.40
2018-02-19T11:24:15.687Z,38.60
2018-02-19T11:26:44.924Z,31.07
2018-02-19T11:29:12.895Z,40.40
2018-02-19T11:31:41.991Z,34.60
2018-02-19T11:34:09.834Z,37.97
2018-02-19T11:36:37.382Z,36.53
2018-02-19T11:39:05.677Z,37.27
2018-02-19T11:41:33.209Z,41.57
2018-02-19T11:44:01.550Z,41.20
2018-02-19T11:46:29.723Z,37.40
2018-02-19T11:48:58.231Z,30.13
2018-02-19T11:51:26.058Z,32.77
2018-02-19T11:53:54.843Z,41.50
2018-02-19T11:56:23.118Z,32.77
2018-02-19T11:58:51.549Z,40.33
2018-02-19T12:01:19.249Z,40.97
2018-02-19T12:03:46.803Z,31.73
2018-02-19T12:06:14.490Z,32.03
2018-02-19T12:08:42.317Z,33.40
2018-02-19T12:11:09.934Z,41.63
2018-02-19T12:13:37.464Z,37.87
2018-02-19T12:16:05.151Z,36.87
2018-02-19T12:18:33.193Z,31.97
2018-02-19T12:21:01.280Z,32.33
2018-02-19T12:23:29.176Z,38.63
2018-02-19T12:25:59.780Z,28.50
2018-02-19T12:28:27.647Z,31.23
2018-02-19T12:30:56.105Z,34.17
2018-02-19T12:33:24.829Z,27.77
2018-02-19T12:35:52.726Z,29.23
2018-02-19T12:38:20.551Z,33.03
2018-02-19T12:40:48.094Z,27.10
2018-02-19T12:43:15.993Z,31.13
2018-02-19T12:45:43.523Z,31.30
2018-02-19T12:48:11.067Z,29.00
2018-02-19T12:50:39.379Z,32.17
2018-02-19T12:53:06.921Z,31.87
2018-02-19T12:55:34.451Z,33.03
2018-02-19T12:58:02.786Z,31.17
2018-02-19T13:00:30.337Z,27.13
2018-02-19T13:02:57.870Z,29.07
2018-02-19T13:05:25.444Z,27.93
2018-02-19T13:07:53.014Z,26.87
2018-02-19T13:10:20.602Z,27.13
2018-02-19T13:12:48.182Z,27.33
2018-02-19T13:15:15.821Z,27.47
2018-02-19T13:17:43.359Z,27.50
2018-02-19T13:20:10.906Z,26.77
2018-02-19T13:22:38.442Z,30.27
2018-02-19T13:25:06.742Z,31.00
2018-02-19T13:27:34.324Z,26.93
2018-02-19T13:30:01.847Z,29.50
2018-02-19T13:32:29.389Z,24.73
2018-02-19T13:34:57.723Z,30.03
2018-02-19T13:37:25.273Z,25.80
2018-02-19T13:39:52.931Z,29.63
2018-02-19T13:42:20.697Z,32.77
2018-02-19T13:44:48.236Z,25.57
2018-02-19T13:47:15.760Z,26.60
2018-02-19T13:49:43.319Z,34.43
2018-02-19T13:52:10.931Z,27.77
2018-02-19T13:54:38.722Z,31.77
2018-02-19T13:57:06.877Z,27.10
2018-02-19T13:59:34.498Z,32.43
2018-02-19T14:02:02.948Z,30.47
2018-02-19T14:04:30.543Z,29.43
2018-02-19T14:06:58.859Z,34.50
2018-02-19T14:09:26.564Z,27.47
2018-02-19T14:11:54.353Z,25.87
2018-02-19T14:14:22.770Z,30.40
2018-02-19T14:16:50.593Z,29.93
2018-02-19T14:19:18.181Z,33.83
2018-02-19T14:21:45.718Z,32.63
2018-02-19T14:24:13.305Z,25.10
2018-02-19T14:26:40.965Z,26.80
2018-02-19T14:29:08.564Z,27.30
2018-02-19T14:31:36.302Z,30.20
2018-02-19T14:34:04.298Z,25.93
2018-02-19T14:36:31.821Z,29.30
2018-02-19T14:38:59.386Z,27.80
2018-02-19T14:41:26.929Z,26.63
2018-02-19T14:43:54.453Z,31.03
2018-02-19T14:46:22.018Z,31.47
2018-02-19T14:48:49.737Z,34.77
2018-02-19T14:51:17.397Z,30.13
2018-02-19T14:53:45.654Z,30.77
2018-02-19T14:56:13.189Z,27.33
2018-02-19T14:58:40.728Z,31.23
2018-02-19T15:01:08.257Z,31.10
2018-02-19T15:03:35.815Z,31.00
2018-02-19T15:06:03.666Z,31.20
2018-02-19T15:08:31.341Z,33.23
2018-02-19T15:10:59.314Z,29.53
2018-02-19T15:13:27.282Z,29.80
2018-02-19T15:15:55.181Z,28.83
2018-02-19T15:18:23.614Z,28.93
2018-02-19T15:20:52.829Z,37.53
2018-02-19T15:23:21.236Z,40.67
2018-02-19T15:25:50.203Z,33.63
2018-02-19T15:28:18.273Z,33.50
2018-02-19T15:30:46.043Z,37.03
2018-02-19T15:33:14.027Z,31.50
2018-02-19T15:35:42.542Z,37.63
2018-02-19T15:38:10.909Z,35.87
2018-02-19T15:40:39.043Z,35.23
2018-02-19T15:43:07.557Z,41.23
2018-02-19T15:45:35.109Z,35.87
2018-02-19T15:48:02.761Z,36.63
2018-02-19T15:50:30.365Z,30.87
2018-02-19T15:52:57.947Z,30.33
2018-02-19T15:55:25.512Z,36.13
2018-02-19T15:57:53.038Z,33.43
2018-02-19T16:00:20.569Z,29.43
2018-02-19T16:02:49.848Z,34.23
2018-02-19T16:05:17.919Z,26.97
2018-02-19T16:07:45.834Z,34.57
2018-02-19T16:10:14.882Z,31.63
2018-02-19T16:12:42.784Z,31.90
2018-02-19T16:15:45.159Z,29.17
2018-02-19T16:18:14.559Z,32.70
2018-02-19T16:20:43.726Z,34.23
2018-02-19T16:23:12.492Z,33.77
2018-02-19T16:25:41.100Z,32.50
2018-02-19T16:28:10.198Z,33.87
2018-02-19T16:30:38.064Z,29.90
2018-02-19T16:33:06.490Z,31.00
2018-02-19T16:35:34.722Z,30.00
2018-02-19T16:38:02.293Z,33.30
2018-02-19T16:40:29.839Z,35.37
2018-02-19T16:42:57.376Z,31.10
2018-02-19T16:45:25.682Z,29.77
2018-02-19T16:47:53.223Z,29.10
2018-02-19T16:50:21.147Z,31.07
2018-02-19T16:52:49.281Z,30.33
2018-02-19T16:55:16.999Z,27.50
2018-02-19T16:57:45.833Z,27.40
2018-02-19T17:00:14.110Z,28.60
2018-02-19T17:02:42.013Z,34.63
2018-02-19T17:05:10.051Z,31.23
2018-02-19T17:07:38.363Z,34.87
2018-02-19T17:10:06.501Z,29.23
2018-02-19T17:12:34.280Z,29.40
2018-02-19T17:15:01.833Z,32.40
2018-02-19T17:17:29.358Z,31.97
2018-02-19T17:19:57.694Z,33.37
2018-02-19T17:22:25.238Z,32.87
2018-02-19T17:24:52.773Z,31.60
2018-02-19T17:27:20.353Z,30.37
2018-02-19T17:29:48.082Z,31.10
2018-02-19T17:32:16.596Z,36.87
2018-02-19T17:34:45.017Z,32.47
2018-02-19T17:37:13.571Z,30.97
2018-02-19T17:39:41.351Z,36.03
2018-02-19T17:42:09.189Z,31.10
2018-02-19T17:44:36.861Z,37.63
2018-02-19T17:47:04.406Z,36.47
2018-02-19T17:49:31.966Z,34.97
2018-02-19T17:51:59.515Z,33.80
2018-02-19T17:54:27.058Z,39.90
2018-02-19T17:56:55.394Z,43.47
2018-02-19T17:59:22.932Z,36.63
2018-02-19T18:01:50.461Z,39.60
2018-02-19T18:04:18.858Z,36.77
2018-02-19T18:06:46.565Z,41.37
2018-02-19T18:09:14.399Z,38.00
2018-02-19T18:11:42.869Z,33.17
2018-02-19T18:14:11.054Z,36.53
2018-02-19T18:16:38.859Z,34.53
2018-02-19T18:19:06.447Z,35.10
2018-02-19T18:21:34.958Z,33.50
2018-02-19T18:24:03.337Z,35.43
2018-02-19T18:26:30.874Z,37.03
2018-02-19T18:28:58.430Z,39.30
2018-02-19T18:31:26.719Z,36.80
2018-02-19T18:33:54.421Z,41.30
2018-02-19T18:36:22.045Z,40.27
2018-02-19T18:38:49.597Z,36.67
2018-02-19T18:41:17.154Z,39.27
2018-02-19T18:43:45.868Z,42.27
2018-02-19T18:46:13.737Z,38.17
2018-02-19T18:48:42.479Z,38.87
2018-02-19T18:51:10.390Z,35.53
2018-02-19T18:53:39.182Z,37.20
2018-02-19T18:56:08.525Z,41.50
2018-02-19T18:58:36.855Z,31.73
2018-02-19T19:01:04.444Z,37.43
2018-02-19T19:03:32.082Z,38.03
2018-02-19T19:05:59.654Z,37.33
2018-02-19T19:08:39.222Z,40.73
2018-02-19T19:11:07.012Z,38.10
2018-02-19T19:13:34.816Z,41.63
2018-02-19T19:16:03.093Z,46.30
2018-02-19T19:18:30.805Z,36.43
2018-02-19T19:20:58.343Z,35.53
2018-02-19T19:23:25.881Z,37.43
2018-02-19T19:25:53.410Z,36.47
2018-02-19T19:28:21.290Z,37.90
2018-02-19T19:30:49.990Z,38.87
2018-02-19T19:33:18.346Z,38.53
2018-02-19T19:35:46.134Z,37.10
2018-02-19T19:38:13.789Z,35.10
2018-02-19T19:40:41.640Z,46.20
2018-02-19T19:43:09.233Z,40.70
2018-02-19T19:45:36.821Z,35.40
2018-02-19T19:48:04.445Z,36.93
2018-02-19T19:50:31.966Z,39.70
2018-02-19T19:53:00.487Z,37.10
2018-02-19T19:55:28.057Z,34.20
2018-02-19T19:57:55.631Z,35.37
2018-02-19T20:00:23.162Z,39.83
2018-02-19T20:02:51.407Z,39.60
2018-02-19T20:05:19.979Z,41.70
2018-02-19T20:07:48.514Z,36.57
2018-02-19T20:10:16.534Z,42.83
2018-02-19T20:12:44.276Z,34.30
2018-02-19T20:15:12.083Z,32.77
2018-02-19T20:17:40.682Z,31.97
2018-02-19T20:20:08.364Z,37.63
2018-02-19T20:22:36.077Z,36.90
2018-02-19T20:25:03.629Z,38.07
2018-02-19T20:27:31.958Z,35.40
2018-02-19T20:29:59.522Z,37.53
2018-02-19T20:32:27.074Z,33.57
2018-02-19T20:37:29.008Z,41.13
2018-02-19T20:39:57.325Z,38.93
2018-02-19T20:42:24.916Z,40.93
2018-02-19T20:44:52.549Z,33.80
2018-02-19T20:47:20.145Z,40.63
2018-02-19T20:49:47.814Z,38.03
2018-02-19T20:52:15.604Z,44.10
2018-02-19T20:54:43.955Z,36.27
2018-02-19T20:57:11.500Z,41.17
2018-02-19T20:59:39.090Z,38.80
2018-02-19T21:02:06.669Z,44.63
2018-02-19T21:04:35.072Z,35.07
2018-02-19T21:07:02.656Z,33.60
2018-02-19T21:09:30.233Z,38.00
2018-02-19T21:11:57.794Z,33.70
2018-02-19T21:14:25.343Z,38.47
2018-02-19T21:16:52.869Z,30.73
2018-02-19T21:19:20.582Z,35.30
2018-02-19T21:21:48.316Z,38.70
2018-02-19T21:24:18.659Z,42.40
2018-02-19T21:26:46.639Z,41.30
2018-02-19T21:29:14.826Z,36.60
2018-02-19T21:31:46.297Z,38.03
2018-02-19T21:34:13.925Z,39.53
2018-02-19T21:36:41.876Z,37.60
2018-02-19T21:39:09.671Z,41.83
2018-02-19T21:41:38.321Z,33.73
2018-02-19T21:44:07.301Z,39.00
2018-02-19T21:46:35.081Z,36.87
2018-02-19T21:49:02.621Z,36.60
2018-02-19T21:51:30.310Z,31.80
2018-02-19T21:53:57.944Z,43.93
2018-02-19T21:56:25.496Z,36.60
2018-02-19T21:58:53.805Z,33.80
2018-02-19T22:01:21.332Z,39.63
2018-02-19T22:03:50.381Z,37.10
2018-02-19T22:06:18.266Z,37.23
2018-02-19T22:08:46.736Z,39.33
2018-02-19T22:11:14.690Z,41.33
2018-02-19T22:13:42.570Z,39.00
2018-02-19T22:16:10.951Z,35.33
2018-02-19T22:18:39.501Z,38.87
2018-02-19T22:21:08.033Z,37.60
2018-02-19T22:23:35.621Z,38.60
2018-02-19T22:26:04.290Z,42.87
2018-02-19T22:28:31.818Z,38.50
2018-02-19T22:30:59.356Z,38.47
2018-02-19T22:33:26.896Z,38.37
2018-02-19T22:35:54.445Z,41.47
2018-02-19T22:38:22.018Z,44.73
2018-02-19T22:40:49.574Z,46.23
2018-02-19T22:43:17.131Z,39.63
2018-02-19T22:45:44.705Z,37.57
2018-02-19T22:48:12.373Z,44.03
2018-02-19T22:50:40.267Z,37.73
2018-02-19T22:53:08.919Z,41.93
2018-02-19T22:55:36.470Z,37.23
2018-02-19T22:58:04.048Z,47.70
2018-02-19T23:00:31.578Z,42.53
2018-02-19T23:02:59.894Z,43.37
2018-02-19T23:05:27.444Z,46.47
2018-02-19T23:07:54.980Z,44.23
2018-02-19T23:10:22.521Z,38.07
2018-02-19T23:12:50.822Z,45.40
2018-02-19T23:15:18.472Z,39.73
2018-02-19T23:17:46.862Z,46.63
2018-02-19T23:20:14.473Z,41.10
2018-02-19T23:22:42.168Z,45.00
2018-02-19T23:25:10.509Z,53.50
2018-02-19T23:27:38.718Z,50.47
2018-02-19T23:30:07.202Z,39.53
2018-02-19T23:32:34.840Z,41.23
2018-02-19T23:35:02.814Z,44.93
2018-02-19T23:37:30.406Z,49.30
2018-02-19T23:39:58.720Z,45.80
2018-02-19T23:42:26.276Z,39.80
2018-02-19T23:44:53.825Z,47.07
2018-02-19T23:47:21.477Z,41.13
2018-02-19T23:49:49.073Z,43.90
2018-02-19T23:52:16.649Z,40.07
2018-02-19T23:54:44.234Z,42.67
2018-02-19T23:57:12.584Z,47.70
2018-02-19T23:59:40.338Z,42.53
